sensor_id;sensor_type;location;lat;lon;timestamp;P1;durP1;ratioP1;P2;durP2;ratioP2
8532;SDS011;4304;53.876;10.662;2022-12-31T00:01:25;6.97;;;5.10;;
8532;SDS011;4304;53.876;10.662;2022-12-31T00:03:51;8.00;;;6.05;;
8532;SDS011;4304;53.876;10.662;2022-12-31T00:06:21;8.68;;;5.63;;
8532;SDS011;4304;53.876;10.662;2022-12-31T00:08:52;6.78;;;5.40;;
8532;SDS011;4304;53.876;10.662;2022-12-31T00:11:18;8.40;;;5.70;;
8532;SDS011;4304;53.876;10.662;2022-12-31T00:13:44;7.20;;;5.22;;
8532;SDS011;4304;53.876;10.662;2022-12-31T00:16:17;9.93;;;5.85;;
8532;SDS011;4304;53.876;10.662;2022-12-31T00:18:46;7.50;;;5.40;;
8532;SDS011;4304;53.876;10.662;2022-12-31T00:21:13;7.60;;;5.53;;
8532;SDS011;4304;53.876;10.662;2022-12-31T00:26:08;6.32;;;5.15;;
8532;SDS011;4304;53.876;10.662;2022-12-31T00:28:35;8.43;;;5.72;;
8532;SDS011;4304;53.876;10.662;2022-12-31T00:31:15;6.65;;;4.80;;
8532;SDS011;4304;53.876;10.662;2022-12-31T00:33:42;6.28;;;5.05;;
8532;SDS011;4304;53.876;10.662;2022-12-31T00:38:38;6.35;;;5.32;;
8532;SDS011;4304;53.876;10.662;2022-12-31T00:41:05;9.95;;;4.88;;
8532;SDS011;4304;53.876;10.662;2022-12-31T00:43:31;6.20;;;4.90;;
8532;SDS011;4304;53.876;10.662;2022-12-31T00:45:57;8.25;;;5.40;;
8532;SDS011;4304;53.876;10.662;2022-12-31T00:48:22;7.78;;;4.90;;
8532;SDS011;4304;53.876;10.662;2022-12-31T00:50:48;7.70;;;5.18;;
8532;SDS011;4304;53.876;10.662;2022-12-31T00:53:15;7.43;;;5.28;;
8532;SDS011;4304;53.876;10.662;2022-12-31T00:55:41;8.02;;;5.40;;
8532;SDS011;4304;53.876;10.662;2022-12-31T00:58:06;6.38;;;4.93;;
8532;SDS011;4304;53.876;10.662;2022-12-31T01:00:31;7.28;;;4.43;;
8532;SDS011;4304;53.876;10.662;2022-12-31T01:02:56;7.90;;;4.60;;
8532;SDS011;4304;53.876;10.662;2022-12-31T01:05:22;7.82;;;5.28;;
8532;SDS011;4304;53.876;10.662;2022-12-31T01:07:47;7.32;;;5.22;;
8532;SDS011;4304;53.876;10.662;2022-12-31T01:10:12;7.25;;;5.40;;
8532;SDS011;4304;53.876;10.662;2022-12-31T01:12:38;6.30;;;4.55;;
8532;SDS011;4304;53.876;10.662;2022-12-31T01:15:03;9.55;;;5.30;;
8532;SDS011;4304;53.876;10.662;2022-12-31T01:17:29;8.95;;;5.30;;
8532;SDS011;4304;53.876;10.662;2022-12-31T01:19:54;6.53;;;4.57;;
8532;SDS011;4304;53.876;10.662;2022-12-31T01:22:19;6.93;;;4.65;;
8532;SDS011;4304;53.876;10.662;2022-12-31T01:24:44;5.57;;;4.53;;
8532;SDS011;4304;53.876;10.662;2022-12-31T01:27:09;6.03;;;4.80;;
8532;SDS011;4304;53.876;10.662;2022-12-31T01:29:35;8.40;;;5.00;;
8532;SDS011;4304;53.876;10.662;2022-12-31T01:32:00;6.50;;;5.22;;
8532;SDS011;4304;53.876;10.662;2022-12-31T01:34:25;6.47;;;4.50;;
8532;SDS011;4304;53.876;10.662;2022-12-31T01:36:51;6.55;;;4.78;;
8532;SDS011;4304;53.876;10.662;2022-12-31T01:39:19;8.10;;;5.10;;
8532;SDS011;4304;53.876;10.662;2022-12-31T01:41:45;7.43;;;5.22;;
8532;SDS011;4304;53.876;10.662;2022-12-31T01:54:33;6.82;;;4.60;;
8532;SDS011;4304;53.876;10.662;2022-12-31T01:57:02;7.22;;;4.93;;
8532;SDS011;4304;53.876;10.662;2022-12-31T01:59:28;7.35;;;5.15;;
8532;SDS011;4304;53.876;10.662;2022-12-31T02:01:54;6.40;;;4.68;;
8532;SDS011;4304;53.876;10.662;2022-12-31T02:04:20;8.45;;;5.55;;
8532;SDS011;4304;53.876;10.662;2022-12-31T02:06:49;5.93;;;4.97;;
8532;SDS011;4304;53.876;10.662;2022-12-31T02:09:22;5.57;;;4.10;;
8532;SDS011;4304;53.876;10.662;2022-12-31T02:11:48;5.15;;;4.40;;
8532;SDS011;4304;53.876;10.662;2022-12-31T02:14:23;5.60;;;4.40;;
8532;SDS011;4304;53.876;10.662;2022-12-31T02:22:58;5.30;;;4.28;;
8532;SDS011;4304;53.876;10.662;2022-12-31T02:25:35;8.38;;;4.05;;
8532;SDS011;4304;53.876;10.662;2022-12-31T02:30:41;7.03;;;3.90;;
8532;SDS011;4304;53.876;10.662;2022-12-31T02:33:32;5.82;;;4.10;;
8532;SDS011;4304;53.876;10.662;2022-12-31T02:36:04;5.68;;;4.00;;
8532;SDS011;4304;53.876;10.662;2022-12-31T02:38:35;4.70;;;3.92;;
8532;SDS011;4304;53.876;10.662;2022-12-31T02:41:13;4.50;;;3.78;;
8532;SDS011;4304;53.876;10.662;2022-12-31T02:43:46;6.40;;;4.28;;
8532;SDS011;4304;53.876;10.662;2022-12-31T02:46:20;5.40;;;4.28;;
8532;SDS011;4304;53.876;10.662;2022-12-31T02:52:27;4.90;;;3.75;;
8532;SDS011;4304;53.876;10.662;2022-12-31T02:57:33;4.50;;;3.13;;
8532;SDS011;4304;53.876;10.662;2022-12-31T03:00:04;6.32;;;3.75;;
8532;SDS011;4304;53.876;10.662;2022-12-31T03:02:32;5.13;;;3.65;;
8532;SDS011;4304;53.876;10.662;2022-12-31T03:05:01;5.03;;;3.38;;
8532;SDS011;4304;53.876;10.662;2022-12-31T03:07:28;4.45;;;3.65;;
8532;SDS011;4304;53.876;10.662;2022-12-31T03:09:54;5.43;;;3.80;;
8532;SDS011;4304;53.876;10.662;2022-12-31T03:12:21;7.13;;;4.05;;
8532;SDS011;4304;53.876;10.662;2022-12-31T03:14:49;6.10;;;3.83;;
8532;SDS011;4304;53.876;10.662;2022-12-31T03:17:20;4.95;;;3.70;;
8532;SDS011;4304;53.876;10.662;2022-12-31T03:19:46;4.85;;;3.58;;
8532;SDS011;4304;53.876;10.662;2022-12-31T03:22:11;4.25;;;3.35;;
8532;SDS011;4304;53.876;10.662;2022-12-31T03:24:37;4.32;;;3.50;;
8532;SDS011;4304;53.876;10.662;2022-12-31T03:27:02;6.32;;;3.78;;
8532;SDS011;4304;53.876;10.662;2022-12-31T03:29:35;5.82;;;3.33;;
8532;SDS011;4304;53.876;10.662;2022-12-31T03:32:01;4.20;;;3.45;;
8532;SDS011;4304;53.876;10.662;2022-12-31T03:34:26;5.10;;;3.38;;
8532;SDS011;4304;53.876;10.662;2022-12-31T03:36:51;5.25;;;3.45;;
8532;SDS011;4304;53.876;10.662;2022-12-31T03:39:18;6.03;;;3.70;;
8532;SDS011;4304;53.876;10.662;2022-12-31T03:41:44;3.78;;;3.20;;
8532;SDS011;4304;53.876;10.662;2022-12-31T03:44:09;3.60;;;3.00;;
8532;SDS011;4304;53.876;10.662;2022-12-31T03:46:34;5.75;;;3.40;;
8532;SDS011;4304;53.876;10.662;2022-12-31T03:48:59;4.70;;;3.40;;
8532;SDS011;4304;53.876;10.662;2022-12-31T03:51:24;7.05;;;3.35;;
8532;SDS011;4304;53.876;10.662;2022-12-31T03:53:50;5.32;;;3.30;;
8532;SDS011;4304;53.876;10.662;2022-12-31T03:56:15;4.57;;;3.60;;
8532;SDS011;4304;53.876;10.662;2022-12-31T03:58:40;5.13;;;3.17;;
8532;SDS011;4304;53.876;10.662;2022-12-31T04:01:05;3.75;;;3.25;;
8532;SDS011;4304;53.876;10.662;2022-12-31T04:03:31;4.45;;;3.80;;
8532;SDS011;4304;53.876;10.662;2022-12-31T04:05:56;4.90;;;3.67;;
8532;SDS011;4304;53.876;10.662;2022-12-31T04:08:21;4.50;;;3.28;;
8532;SDS011;4304;53.876;10.662;2022-12-31T04:10:47;4.28;;;3.30;;
8532;SDS011;4304;53.876;10.662;2022-12-31T04:13:13;5.18;;;3.17;;
8532;SDS011;4304;53.876;10.662;2022-12-31T04:15:38;4.10;;;3.10;;
8532;SDS011;4304;53.876;10.662;2022-12-31T04:18:03;4.55;;;3.35;;
8532;SDS011;4304;53.876;10.662;2022-12-31T04:20:29;3.67;;;2.97;;
8532;SDS011;4304;53.876;10.662;2022-12-31T04:22:54;6.47;;;3.85;;
8532;SDS011;4304;53.876;10.662;2022-12-31T04:25:19;4.78;;;3.42;;
8532;SDS011;4304;53.876;10.662;2022-12-31T04:27:44;4.43;;;3.45;;
8532;SDS011;4304;53.876;10.662;2022-12-31T04:30:10;4.05;;;2.92;;
8532;SDS011;4304;53.876;10.662;2022-12-31T04:32:36;3.78;;;3.38;;
8532;SDS011;4304;53.876;10.662;2022-12-31T04:35:01;5.55;;;3.53;;
8532;SDS011;4304;53.876;10.662;2022-12-31T04:40:14;4.45;;;3.10;;
8532;SDS011;4304;53.876;10.662;2022-12-31T04:42:39;3.47;;;3.17;;
8532;SDS011;4304;53.876;10.662;2022-12-31T04:45:05;7.30;;;3.28;;
8532;SDS011;4304;53.876;10.662;2022-12-31T04:47:31;5.10;;;3.05;;
8532;SDS011;4304;53.876;10.662;2022-12-31T04:49:56;4.75;;;3.75;;
8532;SDS011;4304;53.876;10.662;2022-12-31T04:52:21;4.88;;;3.80;;
8532;SDS011;4304;53.876;10.662;2022-12-31T04:54:49;5.40;;;3.58;;
8532;SDS011;4304;53.876;10.662;2022-12-31T04:57:14;4.78;;;3.75;;
8532;SDS011;4304;53.876;10.662;2022-12-31T04:59:39;5.15;;;3.88;;
8532;SDS011;4304;53.876;10.662;2022-12-31T05:02:04;5.07;;;3.45;;
8532;SDS011;4304;53.876;10.662;2022-12-31T05:04:30;5.82;;;4.35;;
8532;SDS011;4304;53.876;10.662;2022-12-31T05:06:55;6.57;;;3.95;;
8532;SDS011;4304;53.876;10.662;2022-12-31T05:09:20;5.75;;;4.05;;
8532;SDS011;4304;53.876;10.662;2022-12-31T05:11:47;5.55;;;4.50;;
8532;SDS011;4304;53.876;10.662;2022-12-31T05:14:13;6.80;;;4.28;;
8532;SDS011;4304;53.876;10.662;2022-12-31T05:16:38;4.75;;;4.07;;
8532;SDS011;4304;53.876;10.662;2022-12-31T05:19:03;6.03;;;4.30;;
8532;SDS011;4304;53.876;10.662;2022-12-31T05:21:28;4.93;;;3.90;;
8532;SDS011;4304;53.876;10.662;2022-12-31T05:23:53;5.68;;;4.15;;
8532;SDS011;4304;53.876;10.662;2022-12-31T05:26:19;5.53;;;4.32;;
8532;SDS011;4304;53.876;10.662;2022-12-31T05:28:44;4.20;;;3.50;;
8532;SDS011;4304;53.876;10.662;2022-12-31T05:31:18;4.68;;;3.55;;
8532;SDS011;4304;53.876;10.662;2022-12-31T05:33:43;5.43;;;3.40;;
8532;SDS011;4304;53.876;10.662;2022-12-31T05:36:09;5.03;;;3.67;;
8532;SDS011;4304;53.876;10.662;2022-12-31T05:38:35;4.30;;;3.47;;
8532;SDS011;4304;53.876;10.662;2022-12-31T05:41:05;3.60;;;3.00;;
8532;SDS011;4304;53.876;10.662;2022-12-31T05:43:31;5.05;;;2.92;;
8532;SDS011;4304;53.876;10.662;2022-12-31T05:45:59;4.85;;;3.17;;
8532;SDS011;4304;53.876;10.662;2022-12-31T05:48:25;3.70;;;3.00;;
8532;SDS011;4304;53.876;10.662;2022-12-31T05:50:50;3.97;;;2.90;;
8532;SDS011;4304;53.876;10.662;2022-12-31T05:53:16;3.47;;;2.95;;
8532;SDS011;4304;53.876;10.662;2022-12-31T05:55:41;5.78;;;3.05;;
8532;SDS011;4304;53.876;10.662;2022-12-31T05:58:06;3.08;;;2.60;;
8532;SDS011;4304;53.876;10.662;2022-12-31T06:00:31;3.00;;;2.70;;
8532;SDS011;4304;53.876;10.662;2022-12-31T06:02:57;4.03;;;2.60;;
8532;SDS011;4304;53.876;10.662;2022-12-31T06:05:22;3.97;;;3.08;;
8532;SDS011;4304;53.876;10.662;2022-12-31T06:07:47;5.10;;;2.92;;
8532;SDS011;4304;53.876;10.662;2022-12-31T06:10:12;4.18;;;3.00;;
8532;SDS011;4304;53.876;10.662;2022-12-31T06:12:38;4.47;;;2.92;;
8532;SDS011;4304;53.876;10.662;2022-12-31T06:15:03;3.22;;;2.75;;
8532;SDS011;4304;53.876;10.662;2022-12-31T06:17:29;6.47;;;2.88;;
8532;SDS011;4304;53.876;10.662;2022-12-31T06:19:54;3.35;;;2.92;;
8532;SDS011;4304;53.876;10.662;2022-12-31T06:22:19;2.92;;;2.60;;
8532;SDS011;4304;53.876;10.662;2022-12-31T06:24:44;5.93;;;3.20;;
8532;SDS011;4304;53.876;10.662;2022-12-31T06:27:10;4.85;;;2.40;;
8532;SDS011;4304;53.876;10.662;2022-12-31T06:29:35;4.20;;;2.70;;
8532;SDS011;4304;53.876;10.662;2022-12-31T06:32:00;3.95;;;3.20;;
8532;SDS011;4304;53.876;10.662;2022-12-31T06:34:25;4.63;;;2.90;;
8532;SDS011;4304;53.876;10.662;2022-12-31T06:36:51;3.83;;;2.75;;
8532;SDS011;4304;53.876;10.662;2022-12-31T06:39:18;4.88;;;3.40;;
8532;SDS011;4304;53.876;10.662;2022-12-31T06:41:43;3.70;;;3.08;;
8532;SDS011;4304;53.876;10.662;2022-12-31T06:44:08;5.05;;;3.20;;
8532;SDS011;4304;53.876;10.662;2022-12-31T06:46:40;4.68;;;3.47;;
8532;SDS011;4304;53.876;10.662;2022-12-31T06:49:07;3.95;;;3.30;;
8532;SDS011;4304;53.876;10.662;2022-12-31T06:51:33;5.40;;;3.58;;
8532;SDS011;4304;53.876;10.662;2022-12-31T06:53:59;4.10;;;3.33;;
8532;SDS011;4304;53.876;10.662;2022-12-31T06:56:25;4.65;;;3.70;;
8532;SDS011;4304;53.876;10.662;2022-12-31T06:58:51;4.00;;;2.95;;
8532;SDS011;4304;53.876;10.662;2022-12-31T07:01:26;3.97;;;3.22;;
8532;SDS011;4304;53.876;10.662;2022-12-31T07:04:29;5.20;;;2.95;;
8532;SDS011;4304;53.876;10.662;2022-12-31T07:18:36;4.50;;;3.60;;
8532;SDS011;4304;53.876;10.662;2022-12-31T07:21:03;4.28;;;3.20;;
8532;SDS011;4304;53.876;10.662;2022-12-31T07:23:35;3.78;;;2.95;;
8532;SDS011;4304;53.876;10.662;2022-12-31T07:26:06;5.18;;;2.72;;
8532;SDS011;4304;53.876;10.662;2022-12-31T07:48:34;3.45;;;2.00;;
8532;SDS011;4304;53.876;10.662;2022-12-31T07:51:00;2.70;;;1.95;;
8532;SDS011;4304;53.876;10.662;2022-12-31T07:53:25;2.33;;;2.05;;
8532;SDS011;4304;53.876;10.662;2022-12-31T07:56:05;2.50;;;2.15;;
8532;SDS011;4304;53.876;10.662;2022-12-31T07:58:41;3.03;;;1.80;;
8532;SDS011;4304;53.876;10.662;2022-12-31T08:01:21;2.35;;;1.80;;
8532;SDS011;4304;53.876;10.662;2022-12-31T08:06:38;2.17;;;1.70;;
8532;SDS011;4304;53.876;10.662;2022-12-31T08:09:20;3.05;;;1.70;;
8532;SDS011;4304;53.876;10.662;2022-12-31T08:14:20;1.73;;;1.63;;
8532;SDS011;4304;53.876;10.662;2022-12-31T08:16:47;3.35;;;1.45;;
8532;SDS011;4304;53.876;10.662;2022-12-31T08:19:20;3.92;;;1.50;;
8532;SDS011;4304;53.876;10.662;2022-12-31T08:26:59;1.65;;;1.30;;
8532;SDS011;4304;53.876;10.662;2022-12-31T08:32:32;2.45;;;1.20;;
8532;SDS011;4304;53.876;10.662;2022-12-31T08:45:54;1.00;;;0.90;;
8532;SDS011;4304;53.876;10.662;2022-12-31T08:50:54;1.98;;;0.90;;
8532;SDS011;4304;53.876;10.662;2022-12-31T08:53:20;2.13;;;0.70;;
8532;SDS011;4304;53.876;10.662;2022-12-31T08:55:46;1.52;;;0.90;;
8532;SDS011;4304;53.876;10.662;2022-12-31T08:58:34;2.28;;;0.60;;
8532;SDS011;4304;53.876;10.662;2022-12-31T09:01:08;0.80;;;0.80;;
8532;SDS011;4304;53.876;10.662;2022-12-31T09:06:37;1.02;;;0.93;;
8532;SDS011;4304;53.876;10.662;2022-12-31T09:09:25;2.67;;;0.77;;
8532;SDS011;4304;53.876;10.662;2022-12-31T09:12:02;0.68;;;0.65;;
8532;SDS011;4304;53.876;10.662;2022-12-31T09:20:00;2.83;;;0.82;;
8532;SDS011;4304;53.876;10.662;2022-12-31T09:22:26;2.13;;;1.20;;
8532;SDS011;4304;53.876;10.662;2022-12-31T09:24:51;1.67;;;1.10;;
8532;SDS011;4304;53.876;10.662;2022-12-31T09:27:29;2.00;;;1.30;;
8532;SDS011;4304;53.876;10.662;2022-12-31T09:30:05;1.58;;;1.20;;
8532;SDS011;4304;53.876;10.662;2022-12-31T09:41:28;1.33;;;1.23;;
8532;SDS011;4304;53.876;10.662;2022-12-31T09:47:03;1.33;;;1.23;;
8532;SDS011;4304;53.876;10.662;2022-12-31T10:01:15;2.45;;;1.92;;
8532;SDS011;4304;53.876;10.662;2022-12-31T10:06:33;2.40;;;1.50;;
8532;SDS011;4304;53.876;10.662;2022-12-31T10:23:07;1.85;;;0.85;;
8532;SDS011;4304;53.876;10.662;2022-12-31T10:28:30;1.67;;;1.20;;
8532;SDS011;4304;53.876;10.662;2022-12-31T10:34:14;2.20;;;1.30;;
8532;SDS011;4304;53.876;10.662;2022-12-31T10:42:21;3.13;;;1.38;;
8532;SDS011;4304;53.876;10.662;2022-12-31T11:08:08;2.17;;;1.50;;
8532;SDS011;4304;53.876;10.662;2022-12-31T11:38:23;4.03;;;1.45;;
8532;SDS011;4304;53.876;10.662;2022-12-31T11:40:59;1.67;;;1.20;;
8532;SDS011;4304;53.876;10.662;2022-12-31T11:54:48;1.20;;;1.10;;
8532;SDS011;4304;53.876;10.662;2022-12-31T11:57:37;1.77;;;1.30;;
8532;SDS011;4304;53.876;10.662;2022-12-31T12:02:35;1.35;;;1.25;;
8532;SDS011;4304;53.876;10.662;2022-12-31T12:05:05;1.23;;;1.10;;
8532;SDS011;4304;53.876;10.662;2022-12-31T12:07:31;1.50;;;1.15;;
8532;SDS011;4304;53.876;10.662;2022-12-31T12:09:57;1.27;;;1.00;;
8532;SDS011;4304;53.876;10.662;2022-12-31T12:12:49;2.03;;;1.52;;
8532;SDS011;4304;53.876;10.662;2022-12-31T12:15:20;1.50;;;1.10;;
8532;SDS011;4304;53.876;10.662;2022-12-31T12:17:52;2.13;;;1.60;;
8532;SDS011;4304;53.876;10.662;2022-12-31T12:20:20;2.50;;;1.40;;
8532;SDS011;4304;53.876;10.662;2022-12-31T12:22:57;1.35;;;1.20;;
8532;SDS011;4304;53.876;10.662;2022-12-31T12:25:25;1.17;;;1.08;;
8532;SDS011;4304;53.876;10.662;2022-12-31T12:28:09;1.38;;;1.02;;
8532;SDS011;4304;53.876;10.662;2022-12-31T12:30:36;1.55;;;1.40;;
8532;SDS011;4304;53.876;10.662;2022-12-31T12:33:02;1.52;;;1.42;;
8532;SDS011;4304;53.876;10.662;2022-12-31T12:35:28;1.70;;;1.40;;
8532;SDS011;4304;53.876;10.662;2022-12-31T12:40:56;4.50;;;1.50;;
8532;SDS011;4304;53.876;10.662;2022-12-31T12:43:27;2.38;;;1.67;;
8532;SDS011;4304;53.876;10.662;2022-12-31T12:45:56;2.13;;;1.70;;
8532;SDS011;4304;53.876;10.662;2022-12-31T12:50:55;2.17;;;1.27;;
8532;SDS011;4304;53.876;10.662;2022-12-31T13:14:02;2.47;;;1.52;;
8532;SDS011;4304;53.876;10.662;2022-12-31T13:27:29;1.48;;;1.15;;
8532;SDS011;4304;53.876;10.662;2022-12-31T13:30:01;1.35;;;1.15;;
8532;SDS011;4304;53.876;10.662;2022-12-31T13:38:19;1.77;;;1.27;;
8532;SDS011;4304;53.876;10.662;2022-12-31T13:46:09;1.20;;;1.10;;
8532;SDS011;4304;53.876;10.662;2022-12-31T13:48:51;1.08;;;0.98;;
8532;SDS011;4304;53.876;10.662;2022-12-31T13:51:26;1.30;;;1.02;;
8532;SDS011;4304;53.876;10.662;2022-12-31T13:54:49;1.08;;;0.80;;
8532;SDS011;4304;53.876;10.662;2022-12-31T13:56:58;1.98;;;1.38;;
8532;SDS011;4304;53.876;10.662;2022-12-31T13:59:31;2.40;;;1.27;;
8532;SDS011;4304;53.876;10.662;2022-12-31T14:04:51;0.82;;;0.82;;
8532;SDS011;4304;53.876;10.662;2022-12-31T14:07:25;1.67;;;0.93;;
8532;SDS011;4304;53.876;10.662;2022-12-31T14:09:56;1.38;;;0.98;;
8532;SDS011;4304;53.876;10.662;2022-12-31T14:18:24;1.10;;;1.00;;
8532;SDS011;4304;53.876;10.662;2022-12-31T14:20:56;1.20;;;1.02;;
8532;SDS011;4304;53.876;10.662;2022-12-31T14:31:31;1.98;;;1.30;;
8532;SDS011;4304;53.876;10.662;2022-12-31T14:45:12;2.47;;;2.15;;
8532;SDS011;4304;53.876;10.662;2022-12-31T14:52:33;1.52;;;1.27;;
8532;SDS011;4304;53.876;10.662;2022-12-31T14:55:20;1.27;;;1.08;;
8532;SDS011;4304;53.876;10.662;2022-12-31T14:57:48;2.63;;;2.00;;
8532;SDS011;4304;53.876;10.662;2022-12-31T15:02:56;2.42;;;1.77;;
8532;SDS011;4304;53.876;10.662;2022-12-31T15:05:26;3.92;;;1.90;;
8532;SDS011;4304;53.876;10.662;2022-12-31T15:10:39;3.22;;;2.33;;
8532;SDS011;4304;53.876;10.662;2022-12-31T15:16:12;2.33;;;1.42;;
8532;SDS011;4304;53.876;10.662;2022-12-31T15:22:14;1.60;;;1.38;;
8532;SDS011;4304;53.876;10.662;2022-12-31T15:25:00;2.33;;;1.58;;
8532;SDS011;4304;53.876;10.662;2022-12-31T15:29:57;1.58;;;1.20;;
8532;SDS011;4304;53.876;10.662;2022-12-31T15:32:26;2.90;;;1.40;;
8532;SDS011;4304;53.876;10.662;2022-12-31T15:40:45;7.22;;;4.65;;
8532;SDS011;4304;53.876;10.662;2022-12-31T15:43:15;10.20;;;7.47;;
8532;SDS011;4304;53.876;10.662;2022-12-31T15:45:54;5.82;;;4.35;;
8532;SDS011;4304;53.876;10.662;2022-12-31T15:51:21;3.97;;;2.30;;
8532;SDS011;4304;53.876;10.662;2022-12-31T15:53:52;48.65;;;30.77;;
8532;SDS011;4304;53.876;10.662;2022-12-31T15:56:22;10.77;;;7.95;;
8532;SDS011;4304;53.876;10.662;2022-12-31T15:58:56;6.03;;;4.10;;
8532;SDS011;4304;53.876;10.662;2022-12-31T16:01:27;5.25;;;3.95;;
8532;SDS011;4304;53.876;10.662;2022-12-31T16:03:55;5.07;;;3.00;;
8532;SDS011;4304;53.876;10.662;2022-12-31T16:06:30;4.35;;;3.20;;
8532;SDS011;4304;53.876;10.662;2022-12-31T16:08:58;4.30;;;2.88;;
8532;SDS011;4304;53.876;10.662;2022-12-31T16:11:23;8.07;;;3.42;;
8532;SDS011;4304;53.876;10.662;2022-12-31T16:13:51;8.90;;;3.88;;
8532;SDS011;4304;53.876;10.662;2022-12-31T16:16:22;8.00;;;4.05;;
8532;SDS011;4304;53.876;10.662;2022-12-31T16:18:52;8.18;;;4.68;;
8532;SDS011;4304;53.876;10.662;2022-12-31T16:21:25;14.05;;;8.07;;
8532;SDS011;4304;53.876;10.662;2022-12-31T16:23:57;12.68;;;5.30;;
8532;SDS011;4304;53.876;10.662;2022-12-31T16:26:27;9.38;;;5.40;;
8532;SDS011;4304;53.876;10.662;2022-12-31T16:28:56;8.65;;;5.50;;
8532;SDS011;4304;53.876;10.662;2022-12-31T16:31:26;12.48;;;8.52;;
8532;SDS011;4304;53.876;10.662;2022-12-31T16:34:03;8.40;;;4.65;;
8532;SDS011;4304;53.876;10.662;2022-12-31T16:36:30;7.78;;;4.05;;
8532;SDS011;4304;53.876;10.662;2022-12-31T16:39:04;8.32;;;5.30;;
8532;SDS011;4304;53.876;10.662;2022-12-31T16:42:15;18.55;;;10.82;;
8532;SDS011;4304;53.876;10.662;2022-12-31T16:44:43;11.68;;;7.05;;
8532;SDS011;4304;53.876;10.662;2022-12-31T16:47:11;7.22;;;4.40;;
8532;SDS011;4304;53.876;10.662;2022-12-31T16:49:41;10.15;;;5.43;;
8532;SDS011;4304;53.876;10.662;2022-12-31T16:55:01;12.00;;;6.75;;
8532;SDS011;4304;53.876;10.662;2022-12-31T16:57:55;14.50;;;8.02;;
8532;SDS011;4304;53.876;10.662;2022-12-31T17:00:32;10.75;;;6.93;;
8532;SDS011;4304;53.876;10.662;2022-12-31T17:05:31;7.68;;;3.95;;
8532;SDS011;4304;53.876;10.662;2022-12-31T17:07:59;8.90;;;5.60;;
8532;SDS011;4304;53.876;10.662;2022-12-31T17:10:45;7.90;;;4.57;;
8532;SDS011;4304;53.876;10.662;2022-12-31T17:13:35;11.90;;;4.10;;
8532;SDS011;4304;53.876;10.662;2022-12-31T17:16:14;5.07;;;3.65;;
8532;SDS011;4304;53.876;10.662;2022-12-31T17:18:56;5.72;;;3.67;;
8532;SDS011;4304;53.876;10.662;2022-12-31T17:21:25;5.63;;;3.25;;
8532;SDS011;4304;53.876;10.662;2022-12-31T17:23:59;5.82;;;3.05;;
8532;SDS011;4304;53.876;10.662;2022-12-31T17:27:04;4.53;;;2.40;;
8532;SDS011;4304;53.876;10.662;2022-12-31T17:29:35;5.40;;;2.70;;
8532;SDS011;4304;53.876;10.662;2022-12-31T17:32:02;6.53;;;2.75;;
8532;SDS011;4304;53.876;10.662;2022-12-31T17:34:49;7.07;;;3.90;;
8532;SDS011;4304;53.876;10.662;2022-12-31T17:37:20;9.20;;;5.40;;
8532;SDS011;4304;53.876;10.662;2022-12-31T17:39:56;10.20;;;6.28;;
8532;SDS011;4304;53.876;10.662;2022-12-31T17:42:40;7.47;;;4.22;;
8532;SDS011;4304;53.876;10.662;2022-12-31T17:45:17;7.50;;;4.15;;
8532;SDS011;4304;53.876;10.662;2022-12-31T17:47:52;6.22;;;3.58;;
8532;SDS011;4304;53.876;10.662;2022-12-31T17:50:22;6.80;;;3.55;;
8532;SDS011;4304;53.876;10.662;2022-12-31T17:52:54;11.23;;;5.18;;
8532;SDS011;4304;53.876;10.662;2022-12-31T17:55:23;8.05;;;4.30;;
8532;SDS011;4304;53.876;10.662;2022-12-31T17:57:49;14.48;;;3.80;;
8532;SDS011;4304;53.876;10.662;2022-12-31T18:00:21;8.85;;;4.07;;
8532;SDS011;4304;53.876;10.662;2022-12-31T18:02:49;6.35;;;3.30;;
8532;SDS011;4304;53.876;10.662;2022-12-31T18:05:15;11.57;;;5.18;;
8532;SDS011;4304;53.876;10.662;2022-12-31T18:07:42;10.15;;;4.38;;
8532;SDS011;4304;53.876;10.662;2022-12-31T18:10:07;4.18;;;2.47;;
8532;SDS011;4304;53.876;10.662;2022-12-31T18:12:34;5.47;;;2.95;;
8532;SDS011;4304;53.876;10.662;2022-12-31T18:15:07;5.05;;;2.83;;
8532;SDS011;4304;53.876;10.662;2022-12-31T18:17:33;9.77;;;4.57;;
8532;SDS011;4304;53.876;10.662;2022-12-31T18:19:58;9.25;;;4.13;;
8532;SDS011;4304;53.876;10.662;2022-12-31T18:22:24;24.05;;;11.88;;
8532;SDS011;4304;53.876;10.662;2022-12-31T18:24:50;22.33;;;11.30;;
8532;SDS011;4304;53.876;10.662;2022-12-31T18:27:17;20.23;;;10.00;;
8532;SDS011;4304;53.876;10.662;2022-12-31T18:29:43;12.30;;;5.15;;
8532;SDS011;4304;53.876;10.662;2022-12-31T18:32:19;8.90;;;4.22;;
8532;SDS011;4304;53.876;10.662;2022-12-31T18:34:49;19.25;;;10.07;;
8532;SDS011;4304;53.876;10.662;2022-12-31T18:37:14;22.65;;;11.52;;
8532;SDS011;4304;53.876;10.662;2022-12-31T18:39:43;24.98;;;12.45;;
8532;SDS011;4304;53.876;10.662;2022-12-31T18:42:11;15.10;;;8.30;;
8532;SDS011;4304;53.876;10.662;2022-12-31T18:44:38;13.75;;;5.68;;
8532;SDS011;4304;53.876;10.662;2022-12-31T18:47:08;16.30;;;7.20;;
8532;SDS011;4304;53.876;10.662;2022-12-31T18:49:36;13.52;;;7.28;;
8532;SDS011;4304;53.876;10.662;2022-12-31T18:52:03;12.20;;;6.60;;
8532;SDS011;4304;53.876;10.662;2022-12-31T18:54:28;11.02;;;4.38;;
8532;SDS011;4304;53.876;10.662;2022-12-31T18:56:54;8.85;;;3.72;;
8532;SDS011;4304;53.876;10.662;2022-12-31T18:59:19;8.32;;;3.25;;
8532;SDS011;4304;53.876;10.662;2022-12-31T19:01:44;16.95;;;9.60;;
8532;SDS011;4304;53.876;10.662;2022-12-31T19:04:10;13.13;;;7.40;;
8532;SDS011;4304;53.876;10.662;2022-12-31T19:06:44;9.32;;;4.63;;
8532;SDS011;4304;53.876;10.662;2022-12-31T19:09:13;10.13;;;5.25;;
8532;SDS011;4304;53.876;10.662;2022-12-31T19:11:41;8.30;;;4.63;;
8532;SDS011;4304;53.876;10.662;2022-12-31T19:14:17;8.20;;;4.72;;
8532;SDS011;4304;53.876;10.662;2022-12-31T19:16:46;7.53;;;3.92;;
8532;SDS011;4304;53.876;10.662;2022-12-31T19:19:18;10.10;;;4.47;;
8532;SDS011;4304;53.876;10.662;2022-12-31T19:21:44;12.93;;;6.90;;
8532;SDS011;4304;53.876;10.662;2022-12-31T19:24:21;35.72;;;17.90;;
8532;SDS011;4304;53.876;10.662;2022-12-31T19:26:48;72.90;;;46.85;;
8532;SDS011;4304;53.876;10.662;2022-12-31T19:29:18;31.55;;;18.65;;
8532;SDS011;4304;53.876;10.662;2022-12-31T19:31:43;29.42;;;13.02;;
8532;SDS011;4304;53.876;10.662;2022-12-31T19:34:14;25.85;;;11.95;;
8532;SDS011;4304;53.876;10.662;2022-12-31T19:36:40;26.08;;;11.68;;
8532;SDS011;4304;53.876;10.662;2022-12-31T19:39:13;18.00;;;8.45;;
8532;SDS011;4304;53.876;10.662;2022-12-31T19:41:41;42.28;;;22.17;;
8532;SDS011;4304;53.876;10.662;2022-12-31T19:44:17;24.88;;;11.05;;
8532;SDS011;4304;53.876;10.662;2022-12-31T19:46:44;29.73;;;16.27;;
8532;SDS011;4304;53.876;10.662;2022-12-31T19:49:11;22.75;;;12.52;;
8532;SDS011;4304;53.876;10.662;2022-12-31T19:51:39;28.35;;;14.75;;
8532;SDS011;4304;53.876;10.662;2022-12-31T19:54:06;30.17;;;15.52;;
8532;SDS011;4304;53.876;10.662;2022-12-31T19:56:33;35.75;;;18.77;;
8532;SDS011;4304;53.876;10.662;2022-12-31T19:59:03;53.25;;;26.27;;
8532;SDS011;4304;53.876;10.662;2022-12-31T20:01:38;49.70;;;29.85;;
8532;SDS011;4304;53.876;10.662;2022-12-31T20:04:03;45.00;;;27.55;;
8532;SDS011;4304;53.876;10.662;2022-12-31T20:06:31;51.00;;;28.65;;
8532;SDS011;4304;53.876;10.662;2022-12-31T20:08:56;45.53;;;24.13;;
8532;SDS011;4304;53.876;10.662;2022-12-31T20:11:24;50.40;;;27.55;;
8532;SDS011;4304;53.876;10.662;2022-12-31T20:14:01;44.17;;;22.52;;
8532;SDS011;4304;53.876;10.662;2022-12-31T20:16:30;36.50;;;19.52;;
8532;SDS011;4304;53.876;10.662;2022-12-31T20:18:55;45.88;;;23.83;;
8532;SDS011;4304;53.876;10.662;2022-12-31T20:21:22;46.80;;;23.80;;
8532;SDS011;4304;53.876;10.662;2022-12-31T20:23:49;32.50;;;17.45;;
8532;SDS011;4304;53.876;10.662;2022-12-31T20:26:16;33.35;;;16.92;;
8532;SDS011;4304;53.876;10.662;2022-12-31T20:28:43;35.17;;;17.42;;
8532;SDS011;4304;53.876;10.662;2022-12-31T20:31:11;33.22;;;15.50;;
8532;SDS011;4304;53.876;10.662;2022-12-31T20:33:38;22.13;;;9.93;;
8532;SDS011;4304;53.876;10.662;2022-12-31T20:36:04;17.40;;;8.18;;
8532;SDS011;4304;53.876;10.662;2022-12-31T20:38:30;16.23;;;8.70;;